Time;durP1;ratioP1;P1;durP2;ratioP2;P2;SDS_P1;SDS_P2;PMS_P1;PMS_P2;Temp;Humidity;BMP_temperature;BMP_pressure;BME280_temperature;BME280_humidity;BME280_pressure;Samples;Min_cycle;Max_cycle;Signal;HPM_P1;HPM_P2
2023/08/31 00:00:10;;;;;;;13.70;12.90;;;14.10;99.90;;;;;;5043213;28;20197;-76
2023/08/31 00:02:36;;;;;;;13.13;12.30;;;14.10;99.90;;;;;;5042424;28;20710;-77
2023/08/31 00:05:04;;;;;;;12.97;12.17;;;14.10;99.90;;;;;;5040686;28;20208;-77
2023/08/31 00:07:32;;;;;;;13.50;12.70;;;14.10;99.90;;;;;;5038584;28;20201;-77
2023/08/31 00:09:59;;;;;;;13.63;12.83;;;14.10;99.90;;;;;;5042124;28;20199;-77
2023/08/31 00:12:26;;;;;;;14.03;13.20;;;14.00;99.90;;;;;;5041787;28;20246;-77
2023/08/31 00:14:53;;;;;;;14.03;13.10;;;14.10;99.90;;;;;;5040503;28;20234;-77
2023/08/31 00:17:20;;;;;;;13.77;12.97;;;14.10;99.90;;;;;;5038876;28;20204;-78
2023/08/31 00:19:47;;;;;;;14.60;13.50;;;14.00;99.90;;;;;;5039159;28;20207;-77
2023/08/31 00:22:13;;;;;;;15.07;14.07;;;14.10;99.90;;;;;;5040756;28;20716;-77
2023/08/31 00:24:42;;;;;;;14.10;13.20;;;14.10;99.90;;;;;;5041379;28;20203;-77
2023/08/31 00:27:12;;;;;;;14.33;13.33;;;14.00;99.90;;;;;;5036177;28;20200;-77
2023/08/31 00:29:38;;;;;;;14.10;13.10;;;14.00;99.90;;;;;;5039692;28;20196;-76
2023/08/31 00:32:06;;;;;;;13.83;13.03;;;14.00;99.90;;;;;;5040304;28;20204;-77
2023/08/31 00:34:33;;;;;;;14.20;13.30;;;13.90;99.90;;;;;;5040748;28;20200;-77
2023/08/31 00:36:59;;;;;;;13.30;12.53;;;13.90;99.90;;;;;;5039589;28;20231;-78
2023/08/31 00:39:27;;;;;;;13.53;12.73;;;13.90;99.90;;;;;;5038616;28;20218;-77
2023/08/31 00:41:55;;;;;;;13.47;12.67;;;13.90;99.90;;;;;;5040195;28;20227;-78
2023/08/31 00:44:22;;;;;;;14.00;12.97;;;13.90;99.90;;;;;;5039055;28;20274;-77
2023/08/31 00:46:49;;;;;;;13.10;12.30;;;13.90;99.90;;;;;;5039606;28;20200;-76
2023/08/31 00:49:17;;;;;;;13.50;12.60;;;13.90;99.90;;;;;;5039097;28;20650;-77
2023/08/31 00:51:48;;;;;;;13.57;12.67;;;13.90;99.90;;;;;;5039559;28;20212;-77
2023/08/31 00:54:16;;;;;;;13.30;12.50;;;13.90;99.90;;;;;;5040028;28;20259;-77
2023/08/31 00:56:42;;;;;;;13.50;12.70;;;13.90;99.90;;;;;;5038769;28;20188;-76
2023/08/31 00:59:11;;;;;;;13.10;12.30;;;13.90;99.90;;;;;;5039697;28;20405;-76
2023/08/31 01:01:43;;;;;;;13.60;12.60;;;13.90;99.90;;;;;;5043906;28;20232;-78
2023/08/31 01:04:19;;;;;;;13.30;12.40;;;13.90;99.90;;;;;;5041063;28;20201;-76
2023/08/31 01:06:55;;;;;;;13.30;12.50;;;13.90;99.90;;;;;;5032117;28;20271;-77
2023/08/31 01:09:31;;;;;;;13.07;12.27;;;13.80;99.90;;;;;;5039804;28;20253;-76
2023/08/31 01:12:03;;;;;;;13.20;12.43;;;13.80;99.90;;;;;;5039199;28;20215;-76
2023/08/31 01:14:34;;;;;;;13.77;12.87;;;13.80;99.90;;;;;;5038731;28;20203;-78
2023/08/31 01:17:04;;;;;;;13.60;12.70;;;13.90;99.90;;;;;;5040882;28;20277;-77
2023/08/31 01:19:41;;;;;;;13.23;12.40;;;13.80;99.90;;;;;;5040870;28;20218;-76
2023/08/31 01:22:14;;;;;;;12.90;12.10;;;13.80;99.90;;;;;;5038704;28;20256;-77
2023/08/31 01:24:42;;;;;;;12.60;11.80;;;13.80;99.90;;;;;;5038893;28;20222;-77
2023/08/31 01:27:10;;;;;;;12.53;11.73;;;13.80;99.90;;;;;;5037227;28;20624;-78
2023/08/31 01:29:37;;;;;;;13.17;12.37;;;13.80;99.90;;;;;;5042901;28;20193;-76
2023/08/31 01:32:07;;;;;;;12.70;11.90;;;13.80;99.90;;;;;;5042673;28;20766;-76
2023/08/31 01:34:35;;;;;;;12.43;11.73;;;13.90;99.90;;;;;;5043711;28;20267;-77
2023/08/31 01:37:17;;;;;;;12.77;11.97;;;13.90;99.90;;;;;;5042384;28;20266;-78
2023/08/31 01:39:53;;;;;;;13.20;12.30;;;13.80;99.90;;;;;;5043310;28;20587;-76
2023/08/31 01:42:20;;;;;;;13.57;12.73;;;13.80;99.90;;;;;;5042285;28;20233;-76
2023/08/31 01:44:49;;;;;;;13.40;12.60;;;13.80;99.90;;;;;;5042214;28;20204;-77
2023/08/31 01:47:19;;;;;;;13.40;12.57;;;13.80;99.90;;;;;;5042851;28;20283;-77
2023/08/31 01:49:46;;;;;;;13.53;12.70;;;13.80;99.90;;;;;;5043720;28;20199;-76
2023/08/31 01:52:13;;;;;;;13.90;13.00;;;13.80;99.90;;;;;;5042714;28;20234;-77
2023/08/31 01:54:40;;;;;;;13.70;12.90;;;13.70;99.90;;;;;;5042197;28;20267;-78
2023/08/31 01:57:08;;;;;;;13.43;12.63;;;13.80;99.90;;;;;;5041757;28;20196;-77
2023/08/31 01:59:45;;;;;;;13.20;12.40;;;13.70;99.90;;;;;;5042485;28;20638;-76
2023/08/31 02:02:11;;;;;;;14.03;13.13;;;13.70;99.90;;;;;;5041731;28;20223;-77
2023/08/31 02:04:38;;;;;;;13.93;13.07;;;13.70;99.90;;;;;;5041286;28;20204;-77
2023/08/31 02:07:05;;;;;;;14.20;13.30;;;13.60;99.90;;;;;;5039285;28;20218;-76
2023/08/31 02:09:34;;;;;;;14.57;13.67;;;13.60;99.90;;;;;;5041788;28;20224;-77
2023/08/31 02:12:01;;;;;;;14.40;13.60;;;13.60;99.90;;;;;;5042775;28;20216;-77
2023/08/31 02:14:30;;;;;;;13.63;12.83;;;13.60;99.90;;;;;;5041900;28;20212;-77
2023/08/31 02:16:57;;;;;;;13.87;13.07;;;13.60;99.90;;;;;;5041607;28;20200;-76
2023/08/31 02:19:24;;;;;;;13.37;12.63;;;13.60;99.90;;;;;;5042209;28;20197;-76
2023/08/31 02:21:50;;;;;;;13.87;12.97;;;13.60;99.90;;;;;;5041647;28;20227;-76
2023/08/31 02:24:17;;;;;;;15.03;14.13;;;13.70;99.90;;;;;;5041498;28;20734;-76
2023/08/31 02:26:44;;;;;;;14.30;13.30;;;13.60;99.90;;;;;;5041944;28;20521;-77
2023/08/31 02:29:12;;;;;;;14.40;13.60;;;13.60;99.90;;;;;;5043168;28;20198;-76
2023/08/31 02:31:41;;;;;;;14.73;13.73;;;13.60;99.90;;;;;;5041512;28;20224;-77
2023/08/31 02:34:08;;;;;;;13.60;12.80;;;13.60;99.90;;;;;;5041922;28;20195;-77
2023/08/31 02:36:35;;;;;;;14.43;13.63;;;13.60;99.90;;;;;;5035139;28;20665;-76
2023/08/31 02:39:04;;;;;;;14.20;13.40;;;13.60;99.90;;;;;;5041313;28;20223;-76
2023/08/31 02:41:31;;;;;;;13.00;12.20;;;13.60;99.90;;;;;;5039347;28;20311;-80
2023/08/31 02:43:58;;;;;;;13.53;12.73;;;13.50;99.90;;;;;;5040094;28;20620;-76
2023/08/31 02:46:26;;;;;;;14.33;13.53;;;13.50;99.90;;;;;;5041539;28;20627;-76
2023/08/31 02:48:54;;;;;;;12.87;12.07;;;13.50;99.90;;;;;;5042950;28;20208;-77
2023/08/31 02:51:21;;;;;;;13.10;12.30;;;13.50;99.90;;;;;;5041343;28;20224;-76
2023/08/31 02:53:48;;;;;;;12.90;12.20;;;13.50;99.90;;;;;;5034599;28;20196;-77
2023/08/31 02:56:15;;;;;;;13.80;12.90;;;13.50;99.90;;;;;;5029947;28;20235;-77
2023/08/31 02:58:42;;;;;;;14.10;13.30;;;13.50;99.90;;;;;;5034606;28;20212;-77
2023/08/31 03:01:11;;;;;;;13.03;12.27;;;13.50;99.90;;;;;;5035302;28;20251;-77
2023/08/31 03:03:42;;;;;;;13.20;12.40;;;13.40;99.90;;;;;;5028596;28;20216;-77
2023/08/31 03:06:10;;;;;;;13.50;12.60;;;13.40;99.90;;;;;;5033434;28;20188;-76
2023/08/31 03:08:38;;;;;;;13.70;12.90;;;13.40;99.90;;;;;;5030831;28;20583;-76
2023/08/31 03:11:06;;;;;;;14.37;13.40;;;13.40;99.90;;;;;;5034413;28;20210;-77
2023/08/31 03:13:33;;;;;;;15.00;13.90;;;13.40;99.90;;;;;;5025454;28;20200;-77
2023/08/31 03:16:01;;;;;;;13.60;12.70;;;13.40;99.90;;;;;;5030201;28;20554;-79
2023/08/31 03:18:27;;;;;;;13.97;12.97;;;13.40;99.90;;;;;;5035070;28;20218;-78
2023/08/31 03:20:55;;;;;;;13.07;12.37;;;13.40;99.90;;;;;;5032925;28;20267;-79
2023/08/31 03:23:23;;;;;;;13.27;12.47;;;13.30;99.90;;;;;;5031687;28;20613;-78
2023/08/31 03:25:51;;;;;;;14.00;13.20;;;13.40;99.90;;;;;;5031722;28;20196;-77
2023/08/31 03:28:18;;;;;;;12.90;12.10;;;13.30;99.90;;;;;;5029297;28;20233;-75
2023/08/31 03:30:45;;;;;;;13.60;12.80;;;13.30;99.90;;;;;;5028678;28;20234;-76
2023/08/31 03:33:12;;;;;;;13.20;12.40;;;13.30;99.90;;;;;;5031072;28;20223;-75
2023/08/31 03:35:40;;;;;;;13.40;12.60;;;13.30;99.90;;;;;;5033478;28;20219;-75
2023/08/31 03:38:08;;;;;;;13.23;12.43;;;13.20;99.90;;;;;;5033253;28;20585;-75
2023/08/31 03:40:37;;;;;;;13.30;12.50;;;13.20;99.90;;;;;;5032419;28;20677;-76
2023/08/31 03:43:04;;;;;;;13.60;12.80;;;13.30;99.90;;;;;;5033190;28;20216;-75
2023/08/31 03:45:31;;;;;;;13.90;13.10;;;13.30;99.90;;;;;;5033800;28;20740;-75
2023/08/31 03:47:58;;;;;;;13.50;12.70;;;13.30;99.90;;;;;;5030882;28;20212;-75
2023/08/31 03:50:25;;;;;;;13.87;12.97;;;13.20;99.90;;;;;;5031826;28;20200;-76
2023/08/31 03:52:52;;;;;;;13.60;12.80;;;13.20;99.90;;;;;;5030605;28;20282;-76
2023/08/31 03:55:19;;;;;;;13.17;12.37;;;13.20;99.90;;;;;;5030842;28;20207;-75
2023/08/31 03:57:47;;;;;;;13.40;12.50;;;13.20;99.90;;;;;;5030900;28;20204;-76
2023/08/31 04:00:19;;;;;;;14.30;13.50;;;13.20;99.90;;;;;;5030415;28;20570;-76
2023/08/31 04:02:46;;;;;;;13.53;12.73;;;13.20;99.90;;;;;;5056176;23;20259;-78
2023/08/31 04:05:16;;;;;;;13.80;13.00;;;13.20;99.90;;;;;;5031488;28;20184;-78
2023/08/31 04:07:44;;;;;;;13.60;12.80;;;13.20;99.90;;;;;;5029094;28;20591;-77
2023/08/31 04:10:11;;;;;;;13.93;13.13;;;13.20;99.90;;;;;;5031747;28;20566;-77
2023/08/31 04:12:39;;;;;;;13.17;12.47;;;13.20;99.90;;;;;;5032512;28;20208;-78
2023/08/31 04:15:09;;;;;;;13.93;13.03;;;13.20;99.90;;;;;;5032634;28;20195;-78
2023/08/31 04:17:36;;;;;;;14.13;13.33;;;13.20;99.90;;;;;;5031793;28;20204;-78
2023/08/31 04:20:05;;;;;;;14.03;13.23;;;13.20;99.90;;;;;;5029413;28;20570;-78
2023/08/31 04:22:32;;;;;;;14.20;13.40;;;13.20;99.90;;;;;;5032725;28;20227;-77
2023/08/31 04:24:59;;;;;;;14.27;13.40;;;13.30;99.90;;;;;;5034179;28;20207;-78
2023/08/31 04:27:26;;;;;;;14.10;13.30;;;13.30;99.90;;;;;;5032540;28;20590;-78
2023/08/31 04:29:53;;;;;;;15.13;14.23;;;13.20;99.90;;;;;;5033705;28;20685;-78
2023/08/31 04:32:21;;;;;;;15.37;14.40;;;13.30;99.90;;;;;;5033892;28;20216;-78
2023/08/31 04:34:48;;;;;;;14.37;13.37;;;13.30;99.90;;;;;;5049302;28;20196;-80
2023/08/31 04:37:15;;;;;;;14.90;14.00;;;13.20;99.90;;;;;;5049820;28;20200;-78
2023/08/31 04:39:41;;;;;;;15.33;14.40;;;13.30;99.90;;;;;;5034217;28;20195;-78
2023/08/31 04:42:08;;;;;;;14.90;14.10;;;13.30;99.90;;;;;;5031940;28;20235;-78
2023/08/31 04:44:35;;;;;;;14.77;13.87;;;13.20;99.90;;;;;;5033469;28;20196;-78
2023/08/31 04:47:02;;;;;;;14.50;13.50;;;13.20;99.90;;;;;;5034745;28;20266;-78
2023/08/31 04:49:30;;;;;;;14.80;13.90;;;13.20;99.90;;;;;;5035174;28;20230;-78
2023/08/31 04:51:57;;;;;;;14.60;13.77;;;13.20;99.90;;;;;;5033957;28;20219;-78
2023/08/31 04:54:24;;;;;;;13.90;13.10;;;13.20;99.90;;;;;;5031655;28;20191;-78
2023/08/31 04:56:51;;;;;;;14.10;13.30;;;13.20;99.90;;;;;;5034229;28;20239;-78
2023/08/31 04:59:17;;;;;;;13.90;13.10;;;13.20;99.90;;;;;;5034282;28;20238;-78
2023/08/31 05:01:44;;;;;;;15.10;14.20;;;13.20;99.90;;;;;;5036344;28;20585;-79
2023/08/31 05:04:11;;;;;;;14.80;13.90;;;13.20;99.90;;;;;;5037867;28;20602;-78
2023/08/31 05:06:39;;;;;;;15.07;14.17;;;13.20;99.90;;;;;;5039306;28;20192;-78
2023/08/31 05:09:07;;;;;;;14.80;13.77;;;13.20;99.90;;;;;;5039106;28;20192;-78
2023/08/31 05:11:34;;;;;;;14.77;13.83;;;13.20;99.90;;;;;;5033365;28;20232;-78
2023/08/31 05:14:00;;;;;;;14.93;13.93;;;13.30;99.90;;;;;;5036431;28;20196;-78
2023/08/31 05:16:27;;;;;;;15.30;14.30;;;13.30;99.90;;;;;;5036236;28;20426;-78
2023/08/31 05:18:54;;;;;;;14.70;13.80;;;13.30;99.90;;;;;;5037074;28;20666;-78
2023/08/31 05:21:21;;;;;;;14.60;13.80;;;13.40;99.90;;;;;;5038091;28;20262;-78
2023/08/31 05:23:49;;;;;;;14.30;13.50;;;13.50;99.90;;;;;;5036512;28;20227;-78
2023/08/31 05:26:16;;;;;;;15.17;14.17;;;13.50;99.90;;;;;;5036203;28;20254;-78
2023/08/31 05:28:43;;;;;;;14.20;13.40;;;13.60;99.90;;;;;;5037588;28;20200;-78
2023/08/31 05:31:10;;;;;;;14.37;13.57;;;13.60;99.90;;;;;;5037305;28;20633;-78
2023/08/31 05:33:36;;;;;;;14.43;13.57;;;13.60;99.90;;;;;;5038113;28;20196;-78
2023/08/31 05:36:04;;;;;;;13.90;13.00;;;13.60;99.90;;;;;;5034136;28;20199;-78
2023/08/31 05:38:31;;;;;;;14.37;13.47;;;13.70;99.90;;;;;;5038372;28;20269;-78
2023/08/31 05:41:07;;;;;;;13.67;12.87;;;13.80;99.90;;;;;;5037404;28;20558;-78
2023/08/31 05:43:35;;;;;;;13.83;12.93;;;13.80;99.90;;;;;;5034433;28;20632;-78
2023/08/31 05:46:02;;;;;;;13.93;13.13;;;13.90;99.90;;;;;;5038693;28;20191;-79
2023/08/31 05:48:29;;;;;;;13.70;12.90;;;14.00;99.90;;;;;;5038411;28;20197;-79
2023/08/31 05:50:56;;;;;;;13.70;12.90;;;14.00;99.90;;;;;;5039886;28;20557;-79
2023/08/31 05:53:23;;;;;;;14.03;13.23;;;14.20;99.90;;;;;;5038036;28;20306;-78
2023/08/31 05:55:50;;;;;;;14.30;13.50;;;14.40;99.90;;;;;;5037197;28;20246;-78
2023/08/31 05:58:18;;;;;;;14.57;13.43;;;14.50;99.90;;;;;;5037774;28;20200;-78
2023/08/31 06:00:45;;;;;;;14.30;13.23;;;14.60;99.90;;;;;;5036487;28;20560;-78
2023/08/31 06:03:12;;;;;;;13.90;13.10;;;14.50;99.90;;;;;;5035647;28;20216;-78
2023/08/31 06:05:39;;;;;;;14.47;13.60;;;14.50;99.90;;;;;;5037299;28;20201;-78
2023/08/31 06:08:06;;;;;;;15.07;14.17;;;14.40;99.90;;;;;;5036427;28;20196;-78
2023/08/31 06:10:33;;;;;;;14.07;13.17;;;14.40;99.90;;;;;;5032530;28;20192;-78
2023/08/31 06:13:00;;;;;;;13.73;12.93;;;14.40;99.90;;;;;;5036684;28;20208;-78
2023/08/31 06:15:28;;;;;;;14.07;13.27;;;14.40;99.90;;;;;;5036311;28;20202;-78
2023/08/31 06:17:55;;;;;;;13.90;12.93;;;14.40;99.90;;;;;;5035322;28;20205;-78
2023/08/31 06:20:22;;;;;;;13.47;12.77;;;14.40;99.90;;;;;;5036433;28;20198;-78
2023/08/31 06:22:49;;;;;;;13.80;13.00;;;14.50;99.90;;;;;;5036909;28;20240;-78
2023/08/31 06:25:16;;;;;;;14.43;13.40;;;14.50;99.90;;;;;;5036175;28;20195;-78
2023/08/31 06:27:43;;;;;;;14.57;13.57;;;14.50;99.90;;;;;;5036014;28;20267;-78
2023/08/31 06:30:15;;;;;;;14.27;13.40;;;14.60;99.90;;;;;;5035682;28;20284;-78
2023/08/31 06:32:44;;;;;;;14.80;13.90;;;14.70;99.90;;;;;;5029326;28;20232;-78
2023/08/31 06:35:11;;;;;;;14.33;13.33;;;14.80;99.90;;;;;;5030218;28;20196;-78
2023/08/31 06:37:38;;;;;;;14.87;13.80;;;14.90;99.90;;;;;;5038410;28;20231;-78
2023/08/31 06:40:08;;;;;;;13.83;13.00;;;15.00;99.90;;;;;;5038377;28;20748;-78
2023/08/31 06:42:34;;;;;;;14.20;13.30;;;15.00;99.90;;;;;;5036387;28;20222;-78
2023/08/31 06:45:02;;;;;;;13.43;12.53;;;15.10;99.90;;;;;;5037195;28;20228;-78
2023/08/31 06:47:28;;;;;;;13.23;12.40;;;15.10;99.90;;;;;;5038034;28;20201;-78
2023/08/31 06:49:57;;;;;;;13.23;12.43;;;15.20;99.90;;;;;;5037713;28;20213;-78
2023/08/31 06:52:24;;;;;;;13.30;12.40;;;15.30;99.90;;;;;;5038205;28;20241;-78
2023/08/31 06:54:54;;;;;;;14.23;13.23;;;15.50;99.90;;;;;;5036742;28;20244;-78
2023/08/31 06:57:21;;;;;;;13.63;12.73;;;15.60;99.90;;;;;;5037360;28;20204;-78
2023/08/31 06:59:48;;;;;;;12.90;12.10;;;15.80;99.90;;;;;;5037177;28;20203;-78
2023/08/31 07:02:15;;;;;;;12.87;12.07;;;15.90;99.90;;;;;;5038538;28;20233;-78
2023/08/31 07:04:43;;;;;;;13.00;12.10;;;16.10;99.90;;;;;;5037370;28;20218;-78
2023/08/31 07:07:13;;;;;;;12.40;11.60;;;16.20;99.90;;;;;;5029943;28;20235;-78
2023/08/31 07:09:41;;;;;;;12.50;11.67;;;16.30;99.90;;;;;;5036663;28;20195;-82
2023/08/31 07:12:07;;;;;;;9.63;9.03;;;16.40;99.90;;;;;;5038026;28;20288;-82
2023/08/31 07:14:34;;;;;;;9.40;8.63;;;16.40;99.90;;;;;;5031319;28;20197;-82
2023/08/31 07:17:01;;;;;;;9.00;8.40;;;16.40;99.90;;;;;;5032820;28;20651;-82
2023/08/31 07:19:28;;;;;;;6.77;6.27;;;16.30;99.90;;;;;;5034335;28;20200;-82
2023/08/31 07:21:55;;;;;;;9.47;8.77;;;16.20;99.90;;;;;;5025366;28;20628;-82
2023/08/31 07:24:24;;;;;;;11.13;10.43;;;16.40;99.90;;;;;;5031904;28;20215;-82
2023/08/31 07:26:51;;;;;;;4.70;4.30;;;16.70;99.90;;;;;;5034162;28;20210;-82
2023/08/31 07:29:18;;;;;;;6.23;5.00;;;16.90;99.90;;;;;;5034078;28;20192;-83
2023/08/31 07:31:44;;;;;;;4.70;4.20;;;17.50;99.90;;;;;;5028282;28;20229;-82
2023/08/31 07:34:11;;;;;;;11.43;10.43;;;17.70;99.90;;;;;;5031853;28;20368;-82
2023/08/31 07:36:39;;;;;;;11.80;10.80;;;17.70;99.90;;;;;;5049749;28;20578;-83
2023/08/31 07:39:07;;;;;;;11.70;10.90;;;17.70;99.90;;;;;;5034935;28;20199;-79
2023/08/31 07:41:35;;;;;;;11.57;10.70;;;17.60;99.90;;;;;;5038010;28;20220;-79
2023/08/31 07:44:02;;;;;;;11.57;10.67;;;17.50;99.90;;;;;;5035986;28;20481;-79
2023/08/31 07:46:29;;;;;;;8.03;7.43;;;17.50;99.90;;;;;;5038146;28;20555;-79
2023/08/31 07:48:56;;;;;;;11.17;10.37;;;17.50;99.90;;;;;;5037911;28;20192;-79
2023/08/31 07:51:24;;;;;;;3.67;3.37;;;17.50;99.90;;;;;;5036687;28;20210;-82
2023/08/31 07:53:51;;;;;;;14.80;13.90;;;17.50;99.90;;;;;;5032243;28;20254;-81
2023/08/31 07:56:18;;;;;;;11.20;10.40;;;17.50;99.90;;;;;;5022497;28;20254;-81
2023/08/31 07:58:46;;;;;;;9.90;9.10;;;17.40;99.90;;;;;;5032559;28;20416;-82
2023/08/31 08:01:13;;;;;;;4.70;4.30;;;17.40;99.90;;;;;;5034161;28;20199;-82
2023/08/31 08:03:40;;;;;;;14.13;13.20;;;17.30;99.90;;;;;;5033535;28;20216;-82
2023/08/31 08:06:08;;;;;;;5.40;4.97;;;17.30;99.90;;;;;;5048480;28;20214;-81
2023/08/31 08:08:35;;;;;;;3.90;3.40;;;17.20;99.90;;;;;;5033082;28;20279;-82
2023/08/31 08:11:02;;;;;;;9.20;8.43;;;17.20;99.90;;;;;;5048325;28;20200;-82
2023/08/31 08:13:29;;;;;;;8.20;7.40;;;17.50;99.90;;;;;;5033438;28;20277;-82
2023/08/31 08:15:57;;;;;;;3.83;3.40;;;18.10;99.90;;;;;;5033046;28;20286;-82
2023/08/31 08:18:24;;;;;;;6.07;4.60;;;18.80;99.90;;;;;;5025389;28;20232;-82
2023/08/31 08:20:51;;;;;;;5.13;3.20;;;19.60;99.90;;;;;;5031612;28;20205;-82
2023/08/31 08:23:18;;;;;;;4.00;3.60;;;20.20;99.90;;;;;;5032245;28;20231;-79
2023/08/31 08:25:45;;;;;;;3.77;3.37;;;20.70;99.90;;;;;;5035472;28;20712;-80
2023/08/31 08:28:11;;;;;;;6.37;5.87;;;21.00;99.90;;;;;;5033689;28;20211;-80
2023/08/31 08:30:38;;;;;;;8.20;7.60;;;21.10;99.90;;;;;;5033581;28;20206;-80
2023/08/31 08:33:07;;;;;;;9.17;8.57;;;21.30;99.90;;;;;;5034924;28;20215;-80
2023/08/31 08:35:33;;;;;;;6.90;6.40;;;21.30;99.90;;;;;;5034876;28;20195;-80
2023/08/31 08:38:00;;;;;;;4.43;4.00;;;20.80;99.90;;;;;;5028530;28;20678;-79
2023/08/31 08:40:27;;;;;;;4.47;4.13;;;20.80;99.90;;;;;;5033367;28;20689;-79
2023/08/31 08:42:56;;;;;;;6.77;6.13;;;21.10;99.90;;;;;;5033228;28;20644;-80
2023/08/31 08:45:25;;;;;;;6.93;3.60;;;21.30;99.90;;;;;;5026004;28;20222;-80
2023/08/31 08:47:53;;;;;;;6.50;3.57;;;21.30;99.90;;;;;;5034140;28;20671;-80
2023/08/31 08:50:23;;;;;;;6.23;3.80;;;21.40;99.90;;;;;;5032060;28;20250;-80
2023/08/31 08:52:50;;;;;;;7.17;4.40;;;21.60;99.90;;;;;;5033302;28;20251;-80
2023/08/31 08:55:17;;;;;;;8.40;7.73;;;21.90;99.90;;;;;;5033794;28;20258;-83
2023/08/31 08:57:44;;;;;;;6.33;5.80;;;21.80;99.90;;;;;;5032111;28;20203;-83
2023/08/31 09:00:11;;;;;;;4.77;4.37;;;21.90;99.90;;;;;;5023471;28;20250;-82
2023/08/31 09:02:38;;;;;;;8.10;7.40;;;22.00;99.90;;;;;;5027934;28;20231;-83
2023/08/31 09:05:05;;;;;;;8.67;7.97;;;22.20;99.90;;;;;;5028210;28;20274;-82
2023/08/31 09:07:36;;;;;;;5.07;4.67;;;22.40;99.90;;;;;;5031458;28;20208;-83
2023/08/31 09:10:04;;;;;;;5.10;4.70;;;22.40;99.90;;;;;;5028185;28;20242;-83
2023/08/31 09:12:31;;;;;;;4.67;3.40;;;22.00;99.90;;;;;;5031360;28;20220;-83
2023/08/31 09:14:59;;;;;;;4.40;3.37;;;22.10;99.90;;;;;;5031545;28;20200;-83
2023/08/31 09:17:26;;;;;;;3.83;3.10;;;22.00;99.90;;;;;;5039440;28;20569;-83
2023/08/31 09:20:01;;;;;;;3.27;2.97;;;21.50;99.90;;;;;;5031502;28;20215;-83
2023/08/31 09:22:29;;;;;;;3.83;3.40;;;21.20;99.90;;;;;;5032032;28;20315;-83
2023/08/31 09:24:57;;;;;;;4.17;3.70;;;20.90;99.90;;;;;;5032905;28;20273;-82
2023/08/31 09:27:24;;;;;;;6.07;5.53;;;20.60;99.90;;;;;;5031692;28;20258;-82
2023/08/31 09:29:51;;;;;;;6.63;4.43;;;20.30;99.90;;;;;;5026425;28;20626;-82
2023/08/31 09:32:18;;;;;;;5.70;5.17;;;19.90;99.90;;;;;;5025176;28;20232;-83
2023/08/31 09:34:46;;;;;;;6.43;5.83;;;19.90;99.90;;;;;;5028179;28;20223;-83
2023/08/31 09:37:13;;;;;;;10.50;9.63;;;20.00;99.90;;;;;;5031298;28;20200;-82
2023/08/31 09:39:40;;;;;;;9.30;8.60;;;20.00;99.90;;;;;;5031165;28;20271;-83
2023/08/31 09:42:09;;;;;;;11.00;10.20;;;20.50;99.90;;;;;;5032069;28;20215;-83
2023/08/31 09:44:41;;;;;;;8.07;7.37;;;20.70;99.90;;;;;;5031667;28;20219;-83
2023/08/31 09:47:08;;;;;;;10.23;9.53;;;20.60;99.90;;;;;;5034336;28;20195;-83
2023/08/31 09:49:35;;;;;;;9.93;9.23;;;20.70;99.90;;;;;;5028959;28;20204;-83
2023/08/31 09:52:05;;;;;;;10.27;9.47;;;20.60;99.90;;;;;;5036935;28;20203;-83
2023/08/31 09:54:35;;;;;;;11.00;10.20;;;20.90;99.90;;;;;;5035798;28;20600;-84
2023/08/31 09:57:03;;;;;;;9.90;9.10;;;20.90;99.90;;;;;;5036595;28;20196;-83
2023/08/31 09:59:33;;;;;;;10.00;9.30;;;20.90;99.90;;;;;;5034978;28;20291;-84
2023/08/31 10:02:02;;;;;;;10.40;9.57;;;21.00;99.90;;;;;;5033148;28;20231;-83
2023/08/31 10:04:32;;;;;;;7.87;7.17;;;21.00;99.90;;;;;;5035641;28;20215;-83
2023/08/31 10:07:00;;;;;;;9.30;8.43;;;20.90;99.90;;;;;;5030443;28;20702;-83
2023/08/31 10:09:27;;;;;;;10.00;9.20;;;20.70;99.90;;;;;;5035178;28;20207;-83
2023/08/31 10:11:55;;;;;;;8.57;7.87;;;20.60;99.90;;;;;;5034968;28;20395;-83
2023/08/31 10:14:23;;;;;;;9.77;9.07;;;20.40;99.90;;;;;;5036372;28;20569;-83
2023/08/31 10:16:53;;;;;;;10.33;9.53;;;20.30;99.90;;;;;;5035116;28;20265;-83
2023/08/31 10:19:19;;;;;;;7.23;6.70;;;20.20;99.90;;;;;;5035601;28;20196;-83
2023/08/31 10:21:46;;;;;;;5.43;4.97;;;20.10;99.90;;;;;;5035079;28;20231;-83
2023/08/31 10:24:13;;;;;;;9.10;8.50;;;20.20;99.90;;;;;;5035261;28;20216;-83
2023/08/31 10:26:40;;;;;;;9.27;8.57;;;20.30;99.90;;;;;;5039597;28;20204;-83
2023/08/31 10:29:07;;;;;;;11.53;10.60;;;20.10;99.90;;;;;;5036022;28;20196;-82
2023/08/31 10:31:34;;;;;;;8.33;7.53;;;19.90;99.90;;;;;;5035015;28;20223;-83
2023/08/31 10:34:04;;;;;;;3.23;2.90;;;19.60;99.90;;;;;;5034057;28;20210;-83
2023/08/31 10:36:39;;;;;;;12.53;11.63;;;19.30;99.90;;;;;;5034617;28;20201;-83
2023/08/31 10:39:11;;;;;;;9.13;8.43;;;19.20;99.90;;;;;;5033794;28;20202;-83
2023/08/31 10:41:38;;;;;;;10.10;9.40;;;19.50;99.90;;;;;;5033937;28;20224;-83
2023/08/31 10:44:19;;;;;;;10.00;9.30;;;19.90;99.90;;;;;;5027728;28;20196;-83
2023/08/31 10:46:47;;;;;;;10.00;9.00;;;20.10;99.90;;;;;;5032195;28;20202;-83
2023/08/31 10:49:17;;;;;;;6.83;6.13;;;20.00;99.90;;;;;;5031044;28;20211;-83
2023/08/31 10:51:45;;;;;;;9.90;9.00;;;19.90;99.90;;;;;;5030777;28;20691;-83
2023/08/31 10:54:14;;;;;;;3.97;3.40;;;19.90;99.90;;;;;;5031293;28;20208;-82
2023/08/31 10:57:04;;;;;;;3.47;3.03;;;20.20;99.90;;;;;;5033789;28;20211;-82
2023/08/31 10:59:52;;;;;;;10.10;9.27;;;20.40;99.90;;;;;;5034083;28;20555;-83
2023/08/31 11:02:37;;;;;;;9.73;8.73;;;20.60;99.90;;;;;;5025803;28;20652;-83
2023/08/31 11:05:09;;;;;;;9.73;8.93;;;20.70;99.90;;;;;;5035285;28;20211;-83
2023/08/31 11:07:37;;;;;;;9.80;9.00;;;20.70;99.90;;;;;;5029665;28;20199;-83
2023/08/31 11:10:15;;;;;;;8.20;7.33;;;20.70;99.90;;;;;;5035345;28;20195;-83
2023/08/31 11:12:43;;;;;;;7.17;6.47;;;20.70;99.90;;;;;;5028331;28;20694;-83
2023/08/31 11:15:12;;;;;;;10.57;9.77;;;20.80;99.90;;;;;;5034886;28;20677;-83
2023/08/31 11:17:41;;;;;;;10.87;10.07;;;21.00;99.90;;;;;;5043133;28;20663;-83
2023/08/31 11:20:13;;;;;;;9.63;8.97;;;21.10;99.90;;;;;;5034858;28;20254;-83
2023/08/31 11:22:42;;;;;;;9.60;8.70;;;21.50;99.90;;;;;;5027684;28;20760;-83
2023/08/31 11:25:11;;;;;;;9.67;8.97;;;21.40;99.90;;;;;;5030112;28;20224;-83
2023/08/31 11:27:38;;;;;;;8.60;7.93;;;21.20;99.90;;;;;;5034304;28;20200;-83
2023/08/31 11:30:13;;;;;;;9.90;9.20;;;20.90;99.90;;;;;;5034368;28;20671;-83
2023/08/31 11:32:45;;;;;;;9.30;8.70;;;20.60;99.90;;;;;;5035339;28;20230;-83
2023/08/31 11:35:14;;;;;;;9.80;9.10;;;20.60;99.90;;;;;;5031576;28;20184;-83
2023/08/31 11:37:42;;;;;;;11.10;10.20;;;20.70;99.90;;;;;;5030247;28;20689;-82
2023/08/31 11:40:10;;;;;;;9.97;9.27;;;20.50;99.90;;;;;;5035105;28;20188;-83
2023/08/31 11:42:37;;;;;;;9.13;8.53;;;20.50;99.90;;;;;;5034489;28;20222;-83
2023/08/31 11:45:05;;;;;;;5.00;4.10;;;20.60;99.90;;;;;;5034389;28;20212;-83
2023/08/31 11:47:33;;;;;;;6.33;2.87;;;20.70;99.90;;;;;;5043309;28;20207;-82
2023/08/31 11:50:01;;;;;;;4.90;2.83;;;20.60;99.90;;;;;;5034431;28;20412;-83
2023/08/31 11:52:31;;;;;;;4.87;2.90;;;20.60;99.90;;;;;;5033692;28;20227;-83
2023/08/31 11:54:58;;;;;;;6.47;3.17;;;20.90;99.90;;;;;;5027925;28;20250;-83
2023/08/31 11:57:28;;;;;;;4.50;3.03;;;21.10;99.90;;;;;;5034062;28;20670;-83
2023/08/31 11:59:56;;;;;;;6.73;4.37;;;21.20;99.90;;;;;;5033772;28;20207;-83
2023/08/31 12:02:23;;;;;;;8.50;7.80;;;21.20;99.90;;;;;;5033039;28;20231;-83
2023/08/31 12:04:49;;;;;;;6.23;5.70;;;21.30;99.90;;;;;;5034548;28;20212;-83
2023/08/31 12:07:18;;;;;;;7.30;6.80;;;21.40;99.90;;;;;;5034503;28;20199;-83
2023/08/31 12:09:46;;;;;;;8.87;8.20;;;21.50;99.90;;;;;;5035477;28;20425;-83
2023/08/31 12:12:15;;;;;;;9.53;8.77;;;21.40;99.90;;;;;;5034463;28;20219;-83
2023/08/31 12:14:44;;;;;;;9.37;8.67;;;21.40;99.90;;;;;;5032769;28;20198;-83
2023/08/31 12:17:11;;;;;;;8.27;7.60;;;21.20;99.90;;;;;;5033192;28;20203;-83
2023/08/31 12:19:38;;;;;;;8.70;8.00;;;21.10;99.90;;;;;;5034695;28;20196;-84
2023/08/31 12:22:07;;;;;;;8.80;8.10;;;21.10;99.90;;;;;;5033955;28;20274;-83
2023/08/31 12:24:43;;;;;;;8.57;7.90;;;21.10;99.90;;;;;;5033286;28;20632;-83
2023/08/31 12:27:12;;;;;;;9.03;8.43;;;21.00;99.90;;;;;;5029219;28;20196;-83
2023/08/31 12:29:39;;;;;;;9.30;8.37;;;20.80;99.90;;;;;;5034648;28;20199;-83
2023/08/31 12:32:06;;;;;;;8.87;8.17;;;20.80;99.90;;;;;;5026344;28;20220;-83
2023/08/31 12:34:33;;;;;;;9.20;8.40;;;20.90;99.90;;;;;;5032567;28;20266;-83
2023/08/31 12:37:02;;;;;;;9.60;8.70;;;20.80;99.90;;;;;;5033138;28;20203;-83